Time;durP1;ratioP1;P1;durP2;ratioP2;P2;SDS_P1;SDS_P2;PMS_P1;PMS_P2;Temp;Humidity;BMP_temperature;BMP_pressure;BME280_temperature;BME280_humidity;BME280_pressure;Samples;Min_cycle;Max_cycle;Signal;HPM_P1;HPM_P2
2021/12/13 00:00:27;;;;;;;18.02;16.25;;;10.30;99.90;;;;;;5055662;28;20176;-62
2021/12/13 00:03:02;;;;;;;18.50;16.73;;;10.40;99.90;;;;;;5055941;28;20156;-62
2021/12/13 00:05:43;;;;;;;19.55;17.55;;;10.30;99.90;;;;;;5054490;28;20175;-62
2021/12/13 00:08:17;;;;;;;20.30;18.30;;;10.30;99.90;;;;;;5056178;28;20163;-62
2021/12/13 00:10:50;;;;;;;19.08;17.00;;;10.30;99.90;;;;;;5055210;28;20193;-62
2021/12/13 00:13:22;;;;;;;18.45;16.58;;;10.30;99.90;;;;;;5056198;28;20242;-62
2021/12/13 00:16:03;;;;;;;20.73;18.40;;;10.30;99.90;;;;;;5055583;28;20540;-62
2021/12/13 00:18:35;;;;;;;19.88;17.77;;;10.30;99.90;;;;;;5055935;28;20174;-63
2021/12/13 00:21:07;;;;;;;19.35;17.30;;;10.30;99.90;;;;;;5055247;28;20187;-63
2021/12/13 00:23:54;;;;;;;19.58;17.77;;;10.30;99.90;;;;;;5055895;28;20195;-63
2021/12/13 00:26:24;;;;;;;18.65;16.88;;;10.30;99.90;;;;;;5055102;28;20193;-62
2021/12/13 00:28:50;;;;;;;19.08;17.40;;;10.30;99.90;;;;;;5055895;28;20232;-63
2021/12/13 00:31:44;;;;;;;18.85;17.05;;;10.30;99.90;;;;;;5055014;28;20211;-62
2021/12/13 00:34:32;;;;;;;20.35;18.40;;;10.30;99.90;;;;;;5055663;28;20720;-62
2021/12/13 00:37:10;;;;;;;19.50;17.60;;;10.40;99.90;;;;;;5054791;28;20195;-62
2021/12/13 00:39:45;;;;;;;20.00;18.00;;;10.30;99.90;;;;;;5055825;28;20548;-63
2021/12/13 00:42:12;;;;;;;20.10;18.17;;;10.30;99.90;;;;;;5054886;28;20195;-62
2021/12/13 00:44:42;;;;;;;21.80;18.38;;;10.30;99.90;;;;;;5055343;28;20205;-62
2021/12/13 00:47:30;;;;;;;19.83;17.92;;;10.20;99.90;;;;;;5054807;28;20168;-62
2021/12/13 00:50:23;;;;;;;20.50;18.42;;;10.30;99.90;;;;;;5054082;28;20167;-62
2021/12/13 00:52:51;;;;;;;19.52;17.73;;;10.20;99.90;;;;;;5055337;28;20162;-62
2021/12/13 00:55:24;;;;;;;20.27;18.23;;;10.30;99.90;;;;;;5053403;28;20620;-62
2021/12/13 00:58:03;;;;;;;19.85;17.83;;;10.30;99.90;;;;;;5054995;28;20521;-62
2021/12/13 01:00:34;;;;;;;22.15;19.65;;;10.20;99.90;;;;;;5054323;28;20167;-62
2021/12/13 01:03:10;;;;;;;21.13;19.05;;;10.30;99.90;;;;;;5055439;28;20206;-62
2021/12/13 01:06:17;;;;;;;21.48;19.35;;;10.30;99.90;;;;;;5054488;28;20159;-62
2021/12/13 01:09:20;;;;;;;22.92;20.63;;;10.30;99.90;;;;;;5049303;28;20183;-62
2021/12/13 01:11:59;;;;;;;22.67;20.38;;;10.30;99.90;;;;;;5053968;28;20506;-62
2021/12/13 01:14:30;;;;;;;24.90;22.27;;;10.30;99.90;;;;;;5054981;28;20190;-62
2021/12/13 01:17:06;;;;;;;22.25;20.00;;;10.20;99.90;;;;;;5053362;28;20199;-62
2021/12/13 01:19:51;;;;;;;26.35;23.13;;;10.20;99.90;;;;;;5054822;28;20171;-62
2021/12/13 01:22:35;;;;;;;26.20;22.38;;;10.30;99.90;;;;;;5053882;28;20216;-63
2021/12/13 01:25:19;;;;;;;27.00;24.35;;;10.30;99.90;;;;;;5053487;28;20207;-62
2021/12/13 01:27:57;;;;;;;25.80;23.15;;;10.30;99.90;;;;;;5054556;28;20167;-62
2021/12/13 01:30:33;;;;;;;28.33;24.50;;;10.30;99.90;;;;;;5053646;28;20166;-62
2021/12/13 01:33:03;;;;;;;30.48;25.20;;;10.30;99.90;;;;;;5054435;28;20155;-62
2021/12/13 01:35:33;;;;;;;29.85;24.35;;;10.20;99.90;;;;;;5053893;28;20179;-62
2021/12/13 01:38:05;;;;;;;26.10;23.35;;;10.30;99.90;;;;;;5054558;28;20193;-62
2021/12/13 01:40:33;;;;;;;29.55;25.63;;;10.20;99.90;;;;;;5053308;28;20290;-62
2021/12/13 01:43:09;;;;;;;28.02;25.20;;;10.20;99.90;;;;;;5054019;28;20309;-62
2021/12/13 01:45:37;;;;;;;32.83;27.05;;;10.20;99.90;;;;;;5053824;28;20237;-62
2021/12/13 01:48:04;;;;;;;28.20;25.20;;;10.20;99.90;;;;;;5052795;28;20183;-62
2021/12/13 01:50:47;;;;;;;34.38;28.50;;;10.20;99.90;;;;;;5052424;28;20384;-63
2021/12/13 01:53:13;;;;;;;32.13;26.90;;;10.20;99.90;;;;;;5054123;28;20159;-63
2021/12/13 01:55:43;;;;;;;31.30;25.85;;;10.20;99.90;;;;;;5051958;28;20253;-63
2021/12/13 01:58:37;;;;;;;32.33;27.80;;;10.20;99.90;;;;;;5054035;28;20164;-62
2021/12/13 02:01:09;;;;;;;34.53;29.17;;;10.20;99.90;;;;;;5053321;28;20160;-63
2021/12/13 02:03:39;;;;;;;34.53;28.60;;;10.20;99.90;;;;;;5053578;28;20334;-62
2021/12/13 02:06:05;;;;;;;28.77;25.30;;;10.30;99.90;;;;;;5053146;28;20186;-62
2021/12/13 02:08:33;;;;;;;35.25;29.23;;;10.20;99.90;;;;;;5053654;28;20179;-63
2021/12/13 02:10:58;;;;;;;32.33;28.48;;;10.20;99.90;;;;;;5052019;28;20187;-63
2021/12/13 02:13:41;;;;;;;34.42;28.60;;;10.20;99.90;;;;;;5053780;28;20175;-62
2021/12/13 02:18:58;;;;;;;35.90;29.35;;;10.20;99.90;;;;;;5053530;28;20167;-63
2021/12/13 02:21:34;;;;;;;36.40;30.08;;;10.30;99.90;;;;;;5053345;28;20623;-62
2021/12/13 02:24:06;;;;;;;36.55;29.77;;;10.30;99.90;;;;;;5053593;28;20186;-63
2021/12/13 02:26:35;;;;;;;32.72;28.05;;;10.20;99.90;;;;;;5051764;28;20178;-63
2021/12/13 02:29:11;;;;;;;33.15;27.38;;;10.20;99.90;;;;;;5052755;28;20175;-63
2021/12/13 02:31:39;;;;;;;35.58;28.60;;;10.10;99.90;;;;;;5052913;28;20155;-63
2021/12/13 02:34:09;;;;;;;34.05;28.33;;;10.20;99.90;;;;;;5053495;28;20179;-63
2021/12/13 02:36:42;;;;;;;35.58;28.83;;;10.20;99.90;;;;;;5053049;28;20171;-63
2021/12/13 02:39:15;;;;;;;36.33;29.05;;;10.10;99.90;;;;;;5053986;28;20206;-63
2021/12/13 02:41:41;;;;;;;37.53;29.65;;;10.20;99.90;;;;;;5052602;28;20187;-63
2021/12/13 02:44:23;;;;;;;35.70;27.38;;;10.20;99.90;;;;;;5052144;28;20210;-63
2021/12/13 02:46:50;;;;;;;37.60;28.33;;;10.20;99.90;;;;;;5053045;28;20176;-63
2021/12/13 02:49:18;;;;;;;35.15;28.02;;;10.20;99.90;;;;;;5053302;28;20202;-63
2021/12/13 02:51:47;;;;;;;33.80;26.70;;;10.20;99.90;;;;;;5052396;28;20617;-63
2021/12/13 02:54:29;;;;;;;32.88;28.08;;;10.10;99.90;;;;;;5053377;28;20175;-62
2021/12/13 02:57:00;;;;;;;33.50;27.95;;;10.10;99.90;;;;;;5052701;28;20167;-63
2021/12/13 02:59:29;;;;;;;34.33;26.58;;;10.10;99.90;;;;;;5052966;28;20156;-63
2021/12/13 03:02:04;;;;;;;36.55;28.55;;;10.10;99.90;;;;;;5051249;28;20182;-63
2021/12/13 03:04:30;;;;;;;35.13;27.48;;;10.20;99.90;;;;;;5053098;28;20529;-62
2021/12/13 03:07:07;;;;;;;39.95;29.15;;;10.10;99.90;;;;;;5052845;28;20187;-63
2021/12/13 03:09:37;;;;;;;36.78;28.50;;;10.10;99.90;;;;;;5053503;28;20628;-62
2021/12/13 03:12:05;;;;;;;37.55;29.23;;;10.10;99.90;;;;;;5052027;28;20646;-63
2021/12/13 03:14:35;;;;;;;33.90;27.67;;;10.20;99.90;;;;;;5053097;28;20203;-63
2021/12/13 03:17:04;;;;;;;31.50;25.65;;;10.20;99.90;;;;;;5052560;28;20218;-63
2021/12/13 03:19:42;;;;;;;32.60;26.83;;;10.10;99.90;;;;;;5053178;28;20176;-63
2021/12/13 03:22:30;;;;;;;30.65;24.95;;;10.10;99.90;;;;;;5052459;28;20229;-63
2021/12/13 03:25:44;;;;;;;34.70;27.55;;;10.10;99.90;;;;;;5052937;28;20195;-63
2021/12/13 03:28:27;;;;;;;33.58;26.08;;;10.10;99.90;;;;;;5049494;28;20191;-62
2021/12/13 03:31:02;;;;;;;32.33;25.77;;;10.10;99.90;;;;;;5052307;28;20221;-63
2021/12/13 03:33:33;;;;;;;30.30;24.80;;;10.10;99.90;;;;;;5052748;28;20174;-63
2021/12/13 03:36:05;;;;;;;30.52;24.60;;;10.10;99.90;;;;;;5052597;28;20216;-63
2021/12/13 03:38:40;;;;;;;31.65;25.67;;;10.10;99.90;;;;;;5052688;28;20198;-63
2021/12/13 03:41:13;;;;;;;32.80;25.55;;;10.10;99.90;;;;;;5055764;28;20202;-63
2021/12/13 03:43:44;;;;;;;29.42;24.00;;;10.10;99.90;;;;;;5056580;28;20286;-62
2021/12/13 03:46:13;;;;;;;29.40;24.65;;;10.00;99.90;;;;;;5055639;28;20179;-62
2021/12/13 03:48:40;;;;;;;27.33;23.58;;;10.10;99.90;;;;;;5056165;28;20236;-62
2021/12/13 03:51:13;;;;;;;33.80;26.35;;;10.00;99.90;;;;;;5055547;28;20225;-62
2021/12/13 03:53:42;;;;;;;27.20;22.95;;;10.00;99.90;;;;;;5056495;28;20171;-63
2021/12/13 03:56:14;;;;;;;26.80;22.25;;;10.00;99.90;;;;;;5055468;28;20179;-63
2021/12/13 03:58:46;;;;;;;28.63;23.08;;;10.00;99.90;;;;;;5056262;28;20182;-63
2021/12/13 04:01:36;;;;;;;27.83;23.55;;;10.00;99.90;;;;;;5055828;28;20159;-62
2021/12/13 04:04:05;;;;;;;29.52;23.80;;;10.00;99.90;;;;;;5056177;28;20195;-63
2021/12/13 04:06:32;;;;;;;32.67;24.27;;;10.00;99.90;;;;;;5055093;28;20171;-63
2021/12/13 04:08:58;;;;;;;28.95;22.25;;;10.00;99.90;;;;;;5055882;28;20172;-63
2021/12/13 04:11:27;;;;;;;26.73;21.25;;;10.00;99.90;;;;;;5055458;28;20171;-62
2021/12/13 04:14:06;;;;;;;27.70;21.83;;;10.00;99.90;;;;;;5056000;28;20199;-62
2021/12/13 04:16:47;;;;;;;28.63;22.10;;;10.00;99.90;;;;;;5055423;28;20592;-62
2021/12/13 04:19:21;;;;;;;26.85;21.80;;;10.00;99.90;;;;;;5054448;28;20620;-63
2021/12/13 04:21:57;;;;;;;25.65;21.00;;;10.00;99.90;;;;;;5055292;28;20243;-63
2021/12/13 04:24:31;;;;;;;27.73;21.35;;;10.00;99.90;;;;;;5055798;28;20198;-62
2021/12/13 04:27:01;;;;;;;30.27;23.10;;;10.00;99.90;;;;;;5055056;28;20178;-63
2021/12/13 04:29:34;;;;;;;26.55;21.10;;;10.10;99.90;;;;;;5055756;28;20213;-62
2021/12/13 04:32:18;;;;;;;25.83;21.08;;;10.10;99.90;;;;;;5055121;28;20193;-62
2021/12/13 04:34:45;;;;;;;27.73;20.55;;;10.00;99.90;;;;;;5055704;28;20165;-63
2021/12/13 04:37:17;;;;;;;26.83;21.20;;;9.90;99.90;;;;;;5054971;28;20179;-62
2021/12/13 04:39:45;;;;;;;26.52;20.67;;;10.00;99.90;;;;;;5055230;28;20182;-63
2021/12/13 04:42:17;;;;;;;26.48;21.20;;;9.90;99.90;;;;;;5054851;28;20171;-63
2021/12/13 04:44:59;;;;;;;25.70;20.27;;;9.90;99.90;;;;;;5055282;28;20202;-63
2021/12/13 04:47:35;;;;;;;26.83;20.27;;;9.90;99.90;;;;;;5054469;28;20198;-63
2021/12/13 04:50:12;;;;;;;26.10;20.75;;;9.90;99.90;;;;;;5054203;28;20525;-62
2021/12/13 04:52:39;;;;;;;27.77;22.13;;;9.90;99.90;;;;;;5054868;28;20162;-63
2021/12/13 04:55:13;;;;;;;28.88;21.33;;;9.90;99.90;;;;;;5037353;28;20179;-62
2021/12/13 04:57:40;;;;;;;32.58;23.50;;;9.90;99.90;;;;;;5054002;28;20572;-63
2021/12/13 05:00:11;;;;;;;28.63;22.23;;;9.90;99.90;;;;;;5053531;28;20522;-62
2021/12/13 05:02:46;;;;;;;31.02;22.73;;;9.90;99.90;;;;;;5055239;28;20164;-62
2021/12/13 05:05:14;;;;;;;32.08;22.13;;;9.90;99.90;;;;;;5054663;28;20682;-63
2021/12/13 05:07:43;;;;;;;29.17;21.48;;;10.00;99.90;;;;;;5053673;28;20194;-63
2021/12/13 05:10:12;;;;;;;33.10;23.08;;;10.00;99.90;;;;;;5054606;28;20178;-63
2021/12/13 05:12:38;;;;;;;29.08;21.45;;;10.00;99.90;;;;;;5054953;28;20242;-63
2021/12/13 05:15:12;;;;;;;31.67;20.98;;;10.00;99.90;;;;;;5054702;28;20182;-62
2021/12/13 05:17:44;;;;;;;33.83;22.90;;;10.00;99.90;;;;;;5054966;28;20175;-63
2021/12/13 05:20:16;;;;;;;30.20;22.05;;;10.00;99.90;;;;;;5054269;28;20221;-64
2021/12/13 05:23:04;;;;;;;33.67;24.10;;;10.00;99.90;;;;;;5054793;28;20175;-62
2021/12/13 05:26:04;;;;;;;31.30;22.98;;;9.90;99.90;;;;;;5052948;28;20224;-62
2021/12/13 05:29:01;;;;;;;28.20;22.05;;;9.90;99.90;;;;;;5047146;28;20180;-63
2021/12/13 05:31:29;;;;;;;29.35;22.13;;;9.90;99.90;;;;;;5040494;28;20183;-62
2021/12/13 05:34:04;;;;;;;32.05;23.15;;;9.90;99.90;;;;;;5054535;28;20175;-62
2021/12/13 05:36:32;;;;;;;31.80;22.40;;;9.90;99.90;;;;;;5052430;28;20178;-63
2021/12/13 05:39:11;;;;;;;29.00;22.05;;;9.90;99.90;;;;;;5053240;28;20179;-62
2021/12/13 05:41:39;;;;;;;29.67;22.33;;;9.90;99.90;;;;;;5053911;28;20164;-63
2021/12/13 05:44:10;;;;;;;31.70;22.63;;;9.90;99.90;;;;;;5054224;28;20352;-62
2021/12/13 05:46:48;;;;;;;29.55;21.80;;;9.90;99.90;;;;;;5053066;28;20176;-62
2021/12/13 05:49:21;;;;;;;33.97;22.13;;;9.90;99.90;;;;;;5053905;28;20685;-62
2021/12/13 05:51:50;;;;;;;32.35;22.50;;;9.90;99.90;;;;;;5052098;28;20168;-63
2021/12/13 05:54:27;;;;;;;29.75;21.17;;;9.90;99.90;;;;;;5053835;28;20176;-63
2021/12/13 05:57:11;;;;;;;28.27;21.67;;;9.90;99.90;;;;;;5053539;28;20163;-63
2021/12/13 05:59:52;;;;;;;27.08;20.08;;;9.80;99.90;;;;;;5052917;28;20555;-62
2021/12/13 06:03:01;;;;;;;29.70;21.15;;;9.90;99.90;;;;;;5052639;28;20178;-63
2021/12/13 06:05:49;;;;;;;26.73;19.58;;;9.90;99.90;;;;;;5036482;28;20222;-63
2021/12/13 06:08:19;;;;;;;23.85;19.05;;;9.80;99.90;;;;;;5053678;28;20159;-63
2021/12/13 06:10:58;;;;;;;27.13;21.00;;;9.70;99.90;;;;;;5052312;28;20533;-62
2021/12/13 06:13:39;;;;;;;28.10;20.85;;;9.70;99.90;;;;;;5053728;28;20163;-62
2021/12/13 06:16:05;;;;;;;24.88;19.55;;;9.80;99.90;;;;;;5051656;28;20197;-61
2021/12/13 06:18:40;;;;;;;26.70;19.60;;;9.80;99.90;;;;;;5053748;28;20250;-61
2021/12/13 06:21:18;;;;;;;26.88;20.02;;;9.80;99.90;;;;;;5052898;28;20157;-61
2021/12/13 06:23:47;;;;;;;27.00;20.45;;;9.80;99.90;;;;;;5053285;28;20293;-61
2021/12/13 06:26:14;;;;;;;25.92;19.35;;;9.90;99.90;;;;;;5052917;28;20178;-61
2021/12/13 06:28:52;;;;;;;27.80;20.50;;;9.80;99.90;;;;;;5053761;28;20163;-62
2021/12/13 06:31:21;;;;;;;26.85;18.73;;;9.80;99.90;;;;;;5052052;28;20160;-61
2021/12/13 06:33:54;;;;;;;23.85;18.98;;;9.80;99.90;;;;;;5051817;28;20179;-62
2021/12/13 06:36:34;;;;;;;22.77;18.48;;;9.90;99.90;;;;;;5052667;28;20152;-62
2021/12/13 06:39:12;;;;;;;22.92;18.17;;;9.80;99.90;;;;;;5053228;28;20205;-62
2021/12/13 06:41:44;;;;;;;23.13;18.00;;;9.90;99.90;;;;;;5053148;28;20594;-62
2021/12/13 06:44:24;;;;;;;25.20;18.55;;;9.80;99.90;;;;;;5053466;28;20548;-62
2021/12/13 06:47:08;;;;;;;21.30;16.92;;;9.80;99.90;;;;;;5052609;28;20179;-62
2021/12/13 06:49:41;;;;;;;22.25;17.08;;;9.70;99.90;;;;;;5051867;28;20262;-63
2021/12/13 06:52:13;;;;;;;25.75;18.13;;;9.80;99.90;;;;;;5052713;28;20235;-63
2021/12/13 06:55:02;;;;;;;21.25;16.92;;;9.80;99.90;;;;;;5053092;28;20179;-63
2021/12/13 06:57:35;;;;;;;20.48;16.60;;;9.80;99.90;;;;;;5051322;28;20167;-63
2021/12/13 07:00:17;;;;;;;23.85;17.25;;;9.80;99.90;;;;;;5052784;28;20171;-61
2021/12/13 07:02:52;;;;;;;19.33;16.10;;;9.80;99.90;;;;;;5052937;28;20684;-61
2021/12/13 07:05:33;;;;;;;19.58;15.77;;;9.80;99.90;;;;;;5052196;28;20190;-61
2021/12/13 07:08:10;;;;;;;22.35;16.35;;;9.80;99.90;;;;;;5053031;28;20481;-61
2021/12/13 07:11:02;;;;;;;20.58;16.73;;;9.70;99.90;;;;;;5052226;28;20163;-62
2021/12/13 07:13:37;;;;;;;19.08;15.32;;;9.70;99.90;;;;;;5048878;28;20679;-62
2021/12/13 07:16:24;;;;;;;19.65;15.73;;;9.70;99.90;;;;;;5056006;28;20264;-62
2021/12/13 07:18:57;;;;;;;21.20;16.13;;;9.70;99.90;;;;;;5056457;28;20490;-61
2021/12/13 07:21:39;;;;;;;19.20;15.70;;;9.80;99.90;;;;;;5055097;28;20521;-61
2021/12/13 07:24:12;;;;;;;18.90;15.52;;;9.70;99.90;;;;;;5056825;28;20187;-62
2021/12/13 07:26:42;;;;;;;19.52;15.27;;;9.70;99.90;;;;;;5056217;28;20190;-61
2021/12/13 07:29:18;;;;;;;19.67;15.23;;;9.70;99.90;;;;;;5056327;28;20268;-61
2021/12/13 07:31:45;;;;;;;21.80;15.60;;;9.70;99.90;;;;;;5054868;28;20197;-61
2021/12/13 07:34:19;;;;;;;19.58;14.77;;;9.70;99.90;;;;;;5056390;28;20168;-62
2021/12/13 07:36:57;;;;;;;15.88;13.40;;;9.70;99.90;;;;;;5055869;28;20155;-61
2021/12/13 07:39:27;;;;;;;19.58;14.93;;;9.70;99.90;;;;;;5056696;28;20155;-61
2021/12/13 07:42:01;;;;;;;17.70;13.88;;;9.70;99.90;;;;;;5055920;28;20171;-63
2021/12/13 07:44:46;;;;;;;17.45;13.82;;;9.80;99.90;;;;;;5056497;28;20199;-63
2021/12/13 07:47:14;;;;;;;19.45;14.75;;;9.80;99.90;;;;;;5055590;28;20606;-64
2021/12/13 07:49:50;;;;;;;16.45;13.18;;;9.70;99.90;;;;;;5056083;28;20533;-63
2021/12/13 07:52:33;;;;;;;18.15;13.95;;;9.80;99.90;;;;;;5055607;28;20644;-63
2021/12/13 07:55:19;;;;;;;20.55;14.43;;;9.80;99.90;;;;;;5056135;28;20260;-63
2021/12/13 07:57:46;;;;;;;17.05;13.68;;;9.80;99.90;;;;;;5056255;28;20167;-63
2021/12/13 08:00:22;;;;;;;19.27;14.10;;;9.80;99.90;;;;;;5055138;28;20648;-63
2021/12/13 08:03:04;;;;;;;19.20;14.70;;;9.80;99.90;;;;;;5055689;28;20625;-63
2021/12/13 08:05:39;;;;;;;17.23;13.55;;;9.80;99.90;;;;;;5055474;28;20171;-62
2021/12/13 08:08:15;;;;;;;16.83;13.45;;;9.80;99.90;;;;;;5055699;28;20617;-63
2021/12/13 08:10:42;;;;;;;17.10;12.95;;;9.70;99.90;;;;;;5055278;28;20181;-63
2021/12/13 08:13:13;;;;;;;18.42;13.90;;;9.80;99.90;;;;;;5055980;28;20576;-63
2021/12/13 08:15:43;;;;;;;18.20;13.77;;;9.70;99.90;;;;;;5055263;28;20245;-63
2021/12/13 08:18:24;;;;;;;17.83;12.70;;;9.70;99.90;;;;;;5055827;28;20160;-63
2021/12/13 08:21:09;;;;;;;19.10;13.80;;;9.70;99.90;;;;;;5055186;28;20563;-63
2021/12/13 08:23:40;;;;;;;19.90;14.52;;;9.70;99.90;;;;;;5055632;28;20195;-63
2021/12/13 08:26:11;;;;;;;16.65;13.25;;;9.70;99.90;;;;;;5053490;28;20693;-62
2021/12/13 08:28:41;;;;;;;21.23;14.50;;;9.70;99.90;;;;;;5056022;28;20173;-63
2021/12/13 08:31:11;;;;;;;17.25;13.20;;;9.70;99.90;;;;;;5054695;28;20262;-63
2021/12/13 08:33:46;;;;;;;16.98;13.35;;;9.80;99.90;;;;;;5055590;28;20686;-63
2021/12/13 08:36:26;;;;;;;19.67;13.82;;;9.80;99.90;;;;;;5055077;28;20182;-62
2021/12/13 08:39:05;;;;;;;17.45;13.07;;;9.90;99.90;;;;;;5055309;28;20221;-63
2021/12/13 08:41:41;;;;;;;19.20;13.80;;;9.80;99.90;;;;;;5054937;28;20162;-63
2021/12/13 08:44:10;;;;;;;16.52;13.02;;;9.80;99.90;;;;;;5055244;28;20294;-63
2021/12/13 08:46:45;;;;;;;18.63;13.57;;;9.80;99.90;;;;;;5054617;28;20183;-62
2021/12/13 08:49:25;;;;;;;20.27;13.27;;;9.80;99.90;;;;;;5054976;28;20186;-63
2021/12/13 08:51:57;;;;;;;19.10;13.80;;;9.70;99.90;;;;;;5054667;28;20242;-63
2021/12/13 08:54:53;;;;;;;17.70;13.82;;;9.80;99.90;;;;;;5055162;28;20206;-63
2021/12/13 08:57:30;;;;;;;16.20;12.93;;;9.80;99.90;;;;;;5053622;28;20187;-63
2021/12/13 08:59:58;;;;;;;18.65;13.93;;;9.90;99.90;;;;;;5055060;28;20221;-62
2021/12/13 09:02:37;;;;;;;16.85;13.05;;;9.80;99.90;;;;;;5054404;28;20171;-62
2021/12/13 09:05:09;;;;;;;16.15;12.82;;;9.90;99.90;;;;;;5055097;28;20580;-63
2021/12/13 09:07:35;;;;;;;17.02;13.60;;;9.90;99.90;;;;;;5054839;28;20307;-62
2021/12/13 09:10:03;;;;;;;15.05;13.27;;;9.90;99.90;;;;;;5054927;28;20719;-62
2021/12/13 09:12:37;;;;;;;19.35;13.07;;;9.90;99.90;;;;;;5052921;28;20506;-62
2021/12/13 09:15:14;;;;;;;15.75;13.05;;;9.90;99.90;;;;;;5054602;28;20182;-62
2021/12/13 09:17:41;;;;;;;17.58;12.52;;;9.90;99.90;;;;;;5054972;28;20163;-62
2021/12/13 09:20:18;;;;;;;14.73;12.13;;;10.00;99.90;;;;;;5053799;28;20165;-62
2021/12/13 09:22:48;;;;;;;15.68;13.15;;;9.90;99.90;;;;;;5054728;28;20155;-63
2021/12/13 09:25:39;;;;;;;16.75;12.52;;;10.00;99.90;;;;;;5053964;28;20282;-63
2021/12/13 09:28:10;;;;;;;18.15;13.32;;;10.00;99.90;;;;;;5054385;28;20174;-63
2021/12/13 09:30:58;;;;;;;15.73;12.32;;;10.00;99.90;;;;;;5053582;28;20168;-63
2021/12/13 09:33:30;;;;;;;15.93;12.63;;;10.00;99.90;;;;;;5054532;28;20221;-63
2021/12/13 09:36:13;;;;;;;14.95;12.35;;;10.00;99.90;;;;;;5053617;28;20194;-62
2021/12/13 09:38:55;;;;;;;16.55;13.10;;;10.00;99.90;;;;;;5054150;28;20155;-63
2021/12/13 09:42:07;;;;;;;15.60;12.30;;;10.00;99.90;;;;;;5053648;28;20527;-62
2021/12/13 09:44:48;;;;;;;14.45;12.15;;;10.00;99.90;;;;;;5031761;28;20212;-63
2021/12/13 09:47:31;;;;;;;15.30;12.13;;;10.00;99.90;;;;;;5050490;28;20207;-63
2021/12/13 09:49:57;;;;;;;13.85;11.98;;;10.00;99.90;;;;;;5054220;28;20166;-63
2021/12/13 09:52:36;;;;;;;12.32;10.57;;;10.00;99.90;;;;;;5053343;28;20167;-63
2021/12/13 09:55:20;;;;;;;13.32;11.05;;;10.00;99.90;;;;;;5054197;28;20486;-63
2021/12/13 09:57:58;;;;;;;14.30;11.10;;;10.10;99.90;;;;;;5053819;28;20170;-63
2021/12/13 10:00:35;;;;;;;12.77;10.93;;;10.10;99.90;;;;;;5053258;28;20167;-63
2021/12/13 10:03:08;;;;;;;14.75;10.57;;;10.10;99.90;;;;;;5053910;28;20163;-63
2021/12/13 10:05:40;;;;;;;11.93;10.18;;;10.20;99.90;;;;;;5053008;28;20195;-63
2021/12/13 10:08:21;;;;;;;12.07;10.07;;;10.20;99.90;;;;;;5053310;28;20163;-63
2021/12/13 10:10:52;;;;;;;12.93;10.40;;;10.20;99.90;;;;;;5053038;28;20170;-63
2021/12/13 10:13:26;;;;;;;11.93;10.43;;;10.30;99.90;;;;;;5053812;28;20164;-63
2021/12/13 10:15:57;;;;;;;11.15;9.93;;;10.30;99.90;;;;;;5052987;28;20190;-63
2021/12/13 10:18:26;;;;;;;11.75;9.80;;;10.30;99.90;;;;;;5053455;28;20183;-62
2021/12/13 10:20:57;;;;;;;12.43;9.98;;;10.30;99.90;;;;;;5052982;28;20167;-63
2021/12/13 10:23:27;;;;;;;11.70;9.18;;;10.30;99.90;;;;;;5053559;28;20219;-63
2021/12/13 10:25:56;;;;;;;11.52;9.82;;;10.40;99.90;;;;;;5052690;28;20156;-63
2021/12/13 10:28:28;;;;;;;12.07;9.88;;;10.30;99.90;;;;;;5052923;28;20175;-63
2021/12/13 10:31:12;;;;;;;12.73;10.15;;;10.40;99.90;;;;;;5052857;28;20556;-62
2021/12/13 10:33:39;;;;;;;13.18;10.25;;;10.40;99.90;;;;;;5053527;28;20639;-62
2021/12/13 10:36:07;;;;;;;10.05;9.00;;;10.30;99.90;;;;;;5052769;28;20636;-63
2021/12/13 10:38:47;;;;;;;10.13;9.13;;;10.20;99.90;;;;;;5053684;28;20183;-63
2021/12/13 10:41:19;;;;;;;11.93;9.43;;;10.20;99.90;;;;;;5052575;28;20182;-63
2021/12/13 10:43:53;;;;;;;11.27;9.40;;;10.20;99.90;;;;;;5053047;28;20257;-63
2021/12/13 10:46:26;;;;;;;11.90;9.57;;;10.30;99.90;;;;;;5052658;28;20245;-63
2021/12/13 10:49:06;;;;;;;11.73;9.68;;;10.30;99.90;;;;;;5052438;28;20214;-63
2021/12/13 10:51:44;;;;;;;10.90;8.75;;;10.30;99.90;;;;;;5052672;28;20242;-63
2021/12/13 10:54:16;;;;;;;11.10;9.05;;;10.40;99.90;;;;;;5053188;28;20171;-63
2021/12/13 10:56:49;;;;;;;9.85;8.85;;;10.40;99.90;;;;;;5051187;28;20244;-63
2021/12/13 10:59:21;;;;;;;11.93;9.32;;;10.40;99.90;;;;;;5052944;28;20568;-63
2021/12/13 11:01:52;;;;;;;12.40;9.95;;;10.50;99.90;;;;;;5052333;28;20197;-63
2021/12/13 11:04:33;;;;;;;10.25;8.88;;;10.40;99.90;;;;;;5052452;28;20215;-63
2021/12/13 11:07:00;;;;;;;11.63;8.88;;;10.40;99.90;;;;;;5052404;28;20600;-63
2021/12/13 11:09:26;;;;;;;9.95;8.93;;;10.50;99.90;;;;;;5051911;28;20179;-63
2021/12/13 11:12:03;;;;;;;10.52;9.07;;;10.40;99.90;;;;;;5052181;28;20647;-63
2021/12/13 11:14:31;;;;;;;12.20;8.93;;;10.50;99.90;;;;;;5052666;28;20183;-63
2021/12/13 11:17:02;;;;;;;11.32;8.32;;;10.50;99.90;;;;;;5052122;28;20191;-63
2021/12/13 11:19:32;;;;;;;10.32;9.23;;;10.50;99.90;;;;;;5053066;28;20636;-63
2021/12/13 11:22:02;;;;;;;10.13;8.85;;;10.60;99.90;;;;;;5052388;28;20588;-63
2021/12/13 11:24:32;;;;;;;10.32;8.35;;;10.50;99.90;;;;;;5052642;28;20522;-63
2021/12/13 11:27:08;;;;;;;9.45;8.40;;;10.60;99.90;;;;;;5052217;28;20632;-63
2021/12/13 11:29:36;;;;;;;10.52;8.98;;;10.60;99.90;;;;;;5052964;28;20186;-63
2021/12/13 11:32:39;;;;;;;9.48;8.48;;;10.70;99.90;;;;;;5051913;28;20179;-63
2021/12/13 11:35:08;;;;;;;9.25;8.27;;;10.80;99.90;;;;;;5052624;28;20217;-63
2021/12/13 11:37:43;;;;;;;10.25;8.48;;;10.70;99.90;;;;;;5052595;28;20255;-65
2021/12/13 11:40:32;;;;;;;8.63;7.65;;;10.70;99.90;;;;;;5052058;28;20163;-61
2021/12/13 11:43:25;;;;;;;8.88;7.78;;;10.70;99.90;;;;;;5053027;28;20156;-63
2021/12/13 11:46:15;;;;;;;11.02;8.40;;;10.60;99.90;;;;;;5051587;28;20222;-64
2021/12/13 11:49:10;;;;;;;9.07;7.65;;;10.60;99.90;;;;;;5052358;28;20525;-64
2021/12/13 11:52:14;;;;;;;8.82;7.93;;;10.60;99.90;;;;;;5052050;28;20202;-64
2021/12/13 11:55:03;;;;;;;9.65;7.68;;;10.60;99.90;;;;;;5029923;28;20338;-64
2021/12/13 11:58:02;;;;;;;9.20;8.20;;;10.60;99.90;;;;;;5051063;28;20190;-65
2021/12/13 12:01:06;;;;;;;9.57;7.88;;;10.60;99.90;;;;;;5053255;28;20173;-63
2021/12/13 12:03:50;;;;;;;9.23;8.32;;;10.60;99.90;;;;;;5055967;28;20389;-64
2021/12/13 12:07:02;;;;;;;8.95;8.05;;;10.60;99.90;;;;;;5055464;28;20187;-63
2021/12/13 12:09:49;;;;;;;9.38;7.90;;;10.60;99.90;;;;;;5055671;28;20175;-64
2021/12/13 12:12:44;;;;;;;8.80;7.60;;;10.70;99.90;;;;;;5055352;28;20172;-64
2021/12/13 12:15:11;;;;;;;9.35;7.95;;;10.70;99.90;;;;;;5054761;28;20237;-63
2021/12/13 12:17:38;;;;;;;8.75;7.90;;;10.60;99.90;;;;;;5055907;28;20258;-64
2021/12/13 12:20:08;;;;;;;9.07;7.90;;;10.60;99.90;;;;;;5055920;28;20229;-64
2021/12/13 12:22:51;;;;;;;11.82;8.57;;;10.60;99.90;;;;;;5055436;28;20159;-65
2021/12/13 12:25:22;;;;;;;8.38;7.55;;;10.60;99.90;;;;;;5054761;28;20203;-64
2021/12/13 12:27:55;;;;;;;9.43;7.90;;;10.60;99.90;;;;;;5055782;28;20195;-64
2021/12/13 12:30:26;;;;;;;10.98;8.13;;;10.60;99.90;;;;;;5055117;28;20237;-64
2021/12/13 12:32:56;;;;;;;8.27;7.43;;;10.60;99.90;;;;;;5054448;28;20171;-65
2021/12/13 12:35:33;;;;;;;8.45;7.43;;;10.60;99.90;;;;;;5054685;28;20178;-62
2021/12/13 12:38:03;;;;;;;8.48;7.57;;;10.60;99.90;;;;;;5055719;28;20174;-63
2021/12/13 12:40:59;;;;;;;8.20;7.28;;;10.60;99.90;;;;;;5054787;28;20179;-62
2021/12/13 12:43:30;;;;;;;8.32;7.53;;;10.60;99.90;;;;;;5053871;28;20202;-64
2021/12/13 12:45:59;;;;;;;9.85;8.02;;;10.60;99.90;;;;;;5054574;28;20182;-65
2021/12/13 12:48:27;;;;;;;8.73;7.32;;;10.70;99.90;;;;;;5055421;28;20307;-62
2021/12/13 12:51:09;;;;;;;9.20;7.95;;;10.70;99.90;;;;;;5054394;28;20258;-62
2021/12/13 12:54:04;;;;;;;8.43;7.25;;;10.70;99.90;;;;;;5055198;28;20175;-62
2021/12/13 12:56:37;;;;;;;8.15;7.28;;;10.70;99.90;;;;;;5053417;28;20237;-65
2021/12/13 12:59:27;;;;;;;8.60;7.00;;;10.60;99.90;;;;;;5055014;28;20159;-64
2021/12/13 13:01:58;;;;;;;8.13;7.30;;;10.70;99.90;;;;;;5054352;28;20640;-64
2021/12/13 13:04:34;;;;;;;9.82;7.20;;;10.60;99.90;;;;;;5055074;28;20198;-64
2021/12/13 13:07:03;;;;;;;7.95;7.07;;;10.60;99.90;;;;;;5054146;28;20187;-64
2021/12/13 13:09:52;;;;;;;7.95;7.13;;;10.70;99.90;;;;;;5054792;28;20171;-65
2021/12/13 13:12:30;;;;;;;7.68;6.88;;;10.70;99.90;;;;;;5053657;28;20160;-63
2021/12/13 13:15:03;;;;;;;7.35;6.65;;;10.70;99.90;;;;;;5054834;28;20209;-64
2021/12/13 13:17:33;;;;;;;6.97;6.25;;;10.60;99.90;;;;;;5054121;28;20179;-63
2021/12/13 13:20:05;;;;;;;8.20;6.22;;;10.70;99.90;;;;;;5054569;28;20533;-65